Time;durP1;ratioP1;P1;durP2;ratioP2;P2;SDS_P1;SDS_P2;PMS_P1;PMS_P2;Temp;Humidity;BMP_temperature;BMP_pressure;BME280_temperature;BME280_humidity;BME280_pressure;Samples;Min_cycle;Max_cycle;Signal;HPM_P1;HPM_P2
2020/12/04 00:01:10;;;;;;;93.12;34.35;;;;;;;-0.20;100.00;100728.14;1740125;80;21002;-47
2020/12/04 00:03:38;;;;;;;94.77;37.90;;;;;;;-0.21;100.00;100725.04;1739339;79;21454;-46
2020/12/04 00:09:08;;;;;;;127.30;43.35;;;;;;;-0.13;100.00;100732.61;1764752;79;22677;-44
2020/12/04 00:11:37;;;;;;;126.90;40.20;;;;;;;-0.20;100.00;100740.06;1734622;80;20978;-47
2020/12/04 00:14:05;;;;;;;100.25;36.60;;;;;;;-0.19;100.00;100734.33;1732462;80;22269;-47
2020/12/04 00:16:32;;;;;;;88.85;32.28;;;;;;;-0.20;100.00;100736.09;1733617;80;20970;-44
2020/12/04 00:19:00;;;;;;;87.62;33.35;;;;;;;-0.18;100.00;100731.67;1734541;80;21444;-45
2020/12/04 00:21:28;;;;;;;111.70;41.25;;;;;;;-0.21;100.00;100725.04;1738462;80;20924;-47
2020/12/04 00:23:55;;;;;;;100.95;35.68;;;;;;;-0.21;100.00;100726.37;1740018;80;20990;-44
2020/12/04 00:26:23;;;;;;;85.03;32.03;;;;;;;-0.21;100.00;100726.37;1735140;80;21482;-43
2020/12/04 00:28:50;;;;;;;89.13;34.25;;;;;;;-0.20;100.00;100725.48;1733798;80;21042;-43
2020/12/04 00:31:18;;;;;;;80.70;32.28;;;;;;;-0.20;100.00;100729.91;1733750;80;20964;-47
2020/12/04 00:33:46;;;;;;;91.15;33.30;;;;;;;-0.20;100.00;100722.84;1735982;80;21121;-43
2020/12/04 00:36:14;;;;;;;81.95;31.25;;;;;;;-0.19;100.00;100719.30;1733509;80;21124;-44
2020/12/04 00:38:42;;;;;;;102.07;36.53;;;;;;;-0.20;100.00;100712.23;1736170;80;21300;-44
2020/12/04 00:41:10;;;;;;;82.72;30.97;;;;;;;-0.21;100.00;100718.41;1732041;80;21496;-47
2020/12/04 00:43:38;;;;;;;88.35;30.82;;;;;;;-0.18;100.00;100717.53;1734084;80;20990;-46
2020/12/04 00:46:05;;;;;;;98.55;34.65;;;;;;;-0.21;100.00;100717.09;1735070;80;21120;-46
2020/12/04 00:48:33;;;;;;;99.03;34.03;;;;;;;-0.20;100.00;100716.65;1734204;80;21088;-43
2020/12/04 00:51:01;;;;;;;90.57;33.10;;;;;;;-0.19;100.00;100715.33;1735799;80;22260;-43
2020/12/04 00:53:29;;;;;;;87.95;32.38;;;;;;;-0.19;100.00;100717.98;1734509;80;21160;-46
2020/12/04 00:55:57;;;;;;;92.85;32.17;;;;;;;-0.18;100.00;100719.75;1739162;80;21156;-43
2020/12/04 00:58:26;;;;;;;104.70;36.03;;;;;;;-0.17;100.00;100705.61;1744833;80;20987;-44
2020/12/04 01:00:54;;;;;;;88.90;32.53;;;;;;;-0.17;100.00;100707.38;1741360;80;21100;-46
2020/12/04 01:03:22;;;;;;;83.87;31.37;;;;;;;-0.17;100.00;100705.61;1738723;80;21466;-47
2020/12/04 01:05:49;;;;;;;98.05;34.95;;;;;;;-0.17;100.00;100710.91;1703538;81;21035;-48
2020/12/04 01:08:17;;;;;;;93.17;34.18;;;;;;;-0.18;100.00;100702.52;1681629;81;21032;-47
2020/12/04 01:10:45;;;;;;;101.15;36.38;;;;;;;-0.15;100.00;100699.91;1700861;82;21025;-47
2020/12/04 01:13:15;;;;;;;86.37;32.35;;;;;;;-0.13;100.00;100703.44;1700186;82;21010;-46
2020/12/04 01:15:43;;;;;;;97.10;33.90;;;;;;;-0.13;100.00;100711.40;1701418;82;22247;-43
2020/12/04 01:18:10;;;;;;;81.65;32.13;;;;;;;-0.13;100.00;100706.09;1702032;81;21160;-45
2020/12/04 01:20:38;;;;;;;78.33;32.67;;;;;;;-0.12;100.00;100710.95;1701892;83;20989;-46
2020/12/04 01:23:06;;;;;;;83.72;31.75;;;;;;;-0.11;100.00;100712.29;1701812;83;21141;-43
2020/12/04 01:25:34;;;;;;;86.02;30.50;;;;;;;-0.11;100.00;100716.70;1702816;83;21049;-45
2020/12/04 01:28:01;;;;;;;82.25;31.70;;;;;;;-0.12;100.00;100709.19;1701779;83;21529;-46
2020/12/04 01:30:29;;;;;;;70.25;31.17;;;;;;;-0.09;100.00;100703.05;1702616;83;21030;-44
2020/12/04 01:32:57;;;;;;;77.60;29.63;;;;;;;-0.10;100.00;100694.20;1701010;83;21677;-49
2020/12/04 01:35:24;;;;;;;82.15;30.45;;;;;;;-0.10;100.00;100695.53;1702314;82;21149;-44
2020/12/04 01:37:52;;;;;;;79.97;30.82;;;;;;;-0.11;100.00;100704.34;1699748;83;21231;-46
2020/12/04 01:40:21;;;;;;;84.55;31.52;;;;;;;-0.10;100.00;100693.32;1701166;83;22240;-46
2020/12/04 01:42:48;;;;;;;80.07;31.23;;;;;;;-0.10;100.00;100699.51;1701024;83;21321;-47
2020/12/04 01:45:16;;;;;;;79.30;30.45;;;;;;;-0.10;100.00;100690.67;1701860;83;20990;-43
2020/12/04 01:47:44;;;;;;;72.35;26.25;;;;;;;-0.11;100.00;100690.19;1701212;83;21006;-46
2020/12/04 01:50:12;;;;;;;83.70;28.50;;;;;;;-0.09;100.00;100678.74;1702129;82;21053;-44
2020/12/04 01:52:40;;;;;;;72.65;29.67;;;;;;;-0.10;100.00;100674.32;1702376;82;21176;-44
2020/12/04 01:55:08;;;;;;;78.30;30.88;;;;;;;-0.11;100.00;100679.14;1676598;83;21577;-43
2020/12/04 01:57:35;;;;;;;91.00;31.65;;;;;;;-0.13;100.00;100682.23;1697082;82;21218;-44
2020/12/04 02:00:04;;;;;;;78.85;30.90;;;;;;;-0.13;100.00;100676.94;1647175;82;21185;-45
2020/12/04 02:02:33;;;;;;;71.72;29.37;;;;;;;-0.11;100.00;100691.08;1694985;82;21073;-46
2020/12/04 02:05:01;;;;;;;78.02;30.17;;;;;;;-0.10;100.00;100695.53;1670505;82;21380;-44
2020/12/04 02:08:01;;;;;;;79.80;30.97;;;;;;;-0.11;100.00;100695.05;1697423;82;21037;-46
2020/12/04 02:10:33;;;;;;;77.55;31.45;;;;;;;-0.12;100.00;100697.27;1723326;81;21037;-44
2020/12/04 02:13:00;;;;;;;91.28;33.58;;;;;;;-0.11;100.00;100701.68;1719890;81;21692;-43
2020/12/04 02:15:28;;;;;;;94.90;32.38;;;;;;;-0.08;100.00;100692.88;1694180;82;21145;-46
2020/12/04 02:17:56;;;;;;;105.78;35.83;;;;;;;-0.07;100.00;100703.49;1716341;81;21446;-43
2020/12/04 02:20:24;;;;;;;103.62;35.48;;;;;;;-0.04;100.00;100706.18;1666881;82;21590;-43
2020/12/04 02:22:52;;;;;;;82.02;29.65;;;;;;;-0.08;100.00;100699.07;1716364;82;21244;-43
2020/12/04 02:25:19;;;;;;;104.03;33.92;;;;;;;-0.04;100.00;100710.59;1717510;82;21542;-44
2020/12/04 02:27:50;;;;;;;106.67;35.40;;;;;;;-0.03;100.00;100707.95;1718281;81;21097;-45
2020/12/04 02:30:33;;;;;;;142.93;40.25;;;;;;;-0.03;100.00;100702.65;1725390;82;21385;-46
2020/12/04 02:33:01;;;;;;;156.87;41.73;;;;;;;-0.01;100.00;100698.23;1727411;81;21156;-43
2020/12/04 02:35:29;;;;;;;115.12;38.95;;;;;;;-0.02;100.00;100695.13;1721765;82;20998;-46
2020/12/04 02:37:57;;;;;;;104.12;32.05;;;;;;;-0.02;100.00;100693.81;1718388;82;21735;-45
2020/12/04 02:40:25;;;;;;;111.97;34.00;;;;;;;-0.04;100.00;100689.39;1719327;82;21073;-43
2020/12/04 02:45:29;;;;;;;81.25;32.63;;;;;;;-0.01;100.00;100688.06;1793774;78;27959;-45
2020/12/04 02:47:57;;;;;;;76.85;31.68;;;;;;;-0.01;100.00;100685.41;1786352;77;20918;-47
2020/12/04 02:50:25;;;;;;;85.57;31.48;;;;;;;0.01;100.00;100684.13;1786916;79;21866;-50
2020/12/04 02:52:53;;;;;;;78.87;31.17;;;;;;;-0.01;100.00;100679.67;1783082;79;21010;-44
2020/12/04 02:55:22;;;;;;;89.30;31.20;;;;;;;0.02;100.00;100683.24;1783361;79;21594;-43
2020/12/04 02:57:49;;;;;;;163.47;46.77;;;;;;;0.04;100.00;100685.45;1782783;78;21773;-45
2020/12/04 03:00:17;;;;;;;134.52;41.33;;;;;;;0.05;100.00;100688.55;1792691;77;21593;-46
2020/12/04 03:02:45;;;;;;;120.40;39.67;;;;;;;0.05;100.00;100684.57;1786216;78;21372;-46
2020/12/04 03:05:13;;;;;;;88.90;33.88;;;;;;;0.03;100.00;100671.75;1783958;77;20998;-44
2020/12/04 03:07:41;;;;;;;98.67;33.53;;;;;;;0.01;100.00;100673.52;1784309;77;21125;-43
2020/12/04 03:10:09;;;;;;;89.20;32.42;;;;;;;0.01;100.00;100674.84;1787114;78;20974;-43
2020/12/04 03:12:37;;;;;;;98.52;33.33;;;;;;;0.01;100.00;100673.52;1785363;79;21002;-46
2020/12/04 03:15:05;;;;;;;84.40;30.95;;;;;;;-0.02;100.00;100683.20;1783194;79;21580;-46
2020/12/04 03:17:33;;;;;;;87.57;30.88;;;;;;;0.00;100.00;100685.89;1784210;77;21589;-43
2020/12/04 03:20:02;;;;;;;88.00;32.15;;;;;;;0.00;100.00;100675.28;1783531;79;20942;-43
2020/12/04 03:22:30;;;;;;;77.37;28.90;;;;;;;0.02;100.00;100673.96;1784807;77;21446;-43
2020/12/04 03:24:57;;;;;;;107.80;33.45;;;;;;;0.04;100.00;100678.83;1785282;78;21104;-45
2020/12/04 03:27:25;;;;;;;85.72;31.20;;;;;;;0.04;100.00;100673.52;1786128;79;22226;-52
2020/12/04 03:29:53;;;;;;;87.25;31.55;;;;;;;0.05;100.00;100673.97;1784597;78;21144;-46
2020/12/04 03:32:21;;;;;;;76.25;28.87;;;;;;;0.05;100.00;100669.98;1784711;79;21472;-47
2020/12/04 03:34:48;;;;;;;78.05;29.23;;;;;;;0.05;100.00;100669.98;1787481;78;20998;-46
2020/12/04 03:37:16;;;;;;;82.02;29.92;;;;;;;0.06;100.00;100666.48;1784896;78;21501;-46
2020/12/04 03:39:44;;;;;;;71.72;28.67;;;;;;;0.06;100.00;100673.11;1784178;79;21382;-45
2020/12/04 03:42:11;;;;;;;81.45;29.40;;;;;;;0.06;100.00;100662.06;1786081;77;21153;-44
2020/12/04 03:44:39;;;;;;;68.07;27.93;;;;;;;0.07;100.00;100666.48;1785982;79;20990;-43
2020/12/04 03:47:07;;;;;;;82.57;29.60;;;;;;;0.06;100.00;100666.48;1784670;78;21132;-44
2020/12/04 03:49:35;;;;;;;137.05;40.00;;;;;;;0.05;100.00;100660.70;1785768;77;20986;-43
2020/12/04 03:52:04;;;;;;;108.75;34.63;;;;;;;0.06;100.00;100674.44;1785274;78;21214;-43
2020/12/04 03:54:31;;;;;;;93.17;31.05;;;;;;;0.06;100.00;100674.44;1785581;79;20970;-43
2020/12/04 03:56:59;;;;;;;75.90;30.75;;;;;;;0.05;100.00;100669.55;1783527;79;21545;-44
2020/12/04 03:59:28;;;;;;;75.75;30.17;;;;;;;0.04;100.00;100668.22;1781875;79;21506;-44
2020/12/04 04:01:56;;;;;;;80.03;34.48;;;;;;;0.05;100.00;100669.98;1781956;79;21437;-46
2020/12/04 04:04:24;;;;;;;80.35;33.63;;;;;;;0.07;100.00;100668.25;1781105;79;21447;-44
2020/12/04 04:06:52;;;;;;;74.10;30.45;;;;;;;0.08;100.00;100672.67;1780600;79;21144;-48
2020/12/04 04:09:20;;;;;;;98.70;35.92;;;;;;;0.08;100.00;100662.06;1782521;79;21473;-43
2020/12/04 04:11:47;;;;;;;75.20;31.40;;;;;;;0.10;100.00;100662.95;1781535;79;21585;-47
2020/12/04 04:14:15;;;;;;;76.70;29.95;;;;;;;0.09;100.00;100663.84;1780713;79;21108;-46
2020/12/04 04:16:43;;;;;;;72.67;29.90;;;;;;;0.11;100.00;100664.75;1781690;79;22043;-46
2020/12/04 04:19:11;;;;;;;79.32;31.52;;;;;;;0.13;100.00;100662.98;1782622;79;21014;-44
2020/12/04 04:21:39;;;;;;;80.00;33.40;;;;;;;0.12;100.00;100669.17;1782992;79;20942;-46
2020/12/04 04:24:07;;;;;;;74.30;30.60;;;;;;;0.10;100.00;100662.51;1782093;79;21433;-43
2020/12/04 04:26:35;;;;;;;73.35;30.05;;;;;;;0.14;100.00;100666.08;1780774;79;21148;-45
2020/12/04 04:29:03;;;;;;;81.42;31.97;;;;;;;0.13;100.00;100660.34;1782127;79;21262;-47
2020/12/04 04:31:31;;;;;;;83.50;32.73;;;;;;;0.13;100.00;100669.62;1782518;79;21148;-44
2020/12/04 04:33:59;;;;;;;74.75;30.82;;;;;;;0.12;100.00;100662.55;1782315;79;21085;-46
2020/12/04 04:36:27;;;;;;;74.47;29.80;;;;;;;0.15;100.00;100669.17;1782988;79;21033;-44
2020/12/04 04:38:55;;;;;;;83.87;33.08;;;;;;;0.14;100.00;100668.73;1780918;79;20990;-43
2020/12/04 04:41:22;;;;;;;80.70;32.33;;;;;;;0.14;100.00;100667.41;1788316;79;21597;-43
2020/12/04 04:43:50;;;;;;;94.28;32.78;;;;;;;0.14;100.00;100668.30;1779574;79;21045;-48
2020/12/04 04:46:26;;;;;;;87.05;32.30;;;;;;;0.17;100.00;100664.79;1771541;79;20982;-44
2020/12/04 04:49:09;;;;;;;80.35;30.68;;;;;;;0.25;100.00;100663.05;1813130;77;22826;-43
2020/12/04 04:51:38;;;;;;;89.05;33.28;;;;;;;0.19;100.00;100661.70;1784618;78;21096;-43
2020/12/04 04:54:08;;;;;;;95.10;32.42;;;;;;;0.21;100.00;100655.95;1723105;81;22232;-44
2020/12/04 04:56:36;;;;;;;99.60;35.30;;;;;;;0.22;100.00;100665.70;1715061;81;21001;-47
2020/12/04 04:59:07;;;;;;;109.63;36.63;;;;;;;0.23;100.00;100659.52;1721848;82;21445;-44
2020/12/04 05:01:35;;;;;;;112.20;39.07;;;;;;;0.24;100.00;100655.98;1755390;80;20994;-44
2020/12/04 05:04:02;;;;;;;134.97;42.03;;;;;;;0.26;100.00;100660.41;1723613;81;20990;-43
2020/12/04 05:06:33;;;;;;;105.25;37.28;;;;;;;0.27;100.00;100666.63;1729579;80;21601;-52
2020/12/04 05:09:25;;;;;;;84.52;33.38;;;;;;;0.36;100.00;100666.66;1788358;78;23403;-46
2020/12/04 05:11:57;;;;;;;117.08;40.38;;;;;;;0.31;100.00;100670.16;1776470;79;21021;-46
2020/12/04 05:14:25;;;;;;;145.15;41.42;;;;;;;0.31;100.00;100664.86;1774848;79;21126;-44
2020/12/04 05:16:57;;;;;;;106.67;38.42;;;;;;;0.31;100.00;100665.74;1776155;79;21005;-48
2020/12/04 05:19:32;;;;;;;99.75;36.75;;;;;;;0.32;100.00;100651.63;1775946;79;20962;-47
2020/12/04 05:22:12;;;;;;;155.95;48.08;;;;;;;0.38;100.00;100653.42;1819179;76;22366;-44
2020/12/04 05:24:41;;;;;;;142.65;43.00;;;;;;;0.35;100.00;100658.70;1770974;78;20966;-45
2020/12/04 05:27:29;;;;;;;108.75;37.17;;;;;;;0.34;100.00;100659.14;1761202;78;21381;-48
2020/12/04 05:30:01;;;;;;;109.32;38.10;;;;;;;0.34;100.00;100659.14;1760471;78;20994;-47
2020/12/04 05:32:28;;;;;;;159.45;49.85;;;;;;;0.36;100.00;100657.37;1761727;78;20982;-47
2020/12/04 05:35:09;;;;;;;134.07;42.98;;;;;;;0.40;100.00;100660.50;1763167;79;21097;-48
2020/12/04 05:37:40;;;;;;;144.13;43.08;;;;;;;0.44;100.00;100666.28;1763234;78;20972;-50
2020/12/04 05:40:12;;;;;;;146.87;47.67;;;;;;;0.42;100.00;100668.02;1765374;78;23505;-49
2020/12/04 05:42:42;;;;;;;211.25;56.60;;;;;;;0.43;100.00;100668.48;1760752;79;20981;-46
2020/12/04 05:45:11;;;;;;;197.87;51.10;;;;;;;0.46;100.00;100668.48;1757067;78;20990;-44
2020/12/04 05:47:43;;;;;;;143.52;46.92;;;;;;;0.48;100.00;100660.52;1758675;78;21663;-44
2020/12/04 05:50:11;;;;;;;;;;;;;;;0.47;100.00;100664.95;1765992;78;21659;-44
2020/12/04 05:52:39;;;;;;;141.70;45.95;;;;;;;0.48;100.00;100664.09;1765164;79;22020;-49
2020/12/04 05:55:09;;;;;;;169.80;47.90;;;;;;;0.48;100.00;100674.71;1770428;78;21548;-44
2020/12/04 05:57:53;;;;;;;190.82;52.48;;;;;;;0.49;100.00;100668.95;1760368;78;21413;-46
2020/12/04 06:00:21;;;;;;;147.05;44.00;;;;;;;0.52;100.00;100667.19;1721952;80;21623;-45
2020/12/04 06:02:59;;;;;;;175.72;49.88;;;;;;;0.56;100.00;100668.10;1704877;81;21234;-47
2020/12/04 06:05:27;;;;;;;154.55;48.68;;;;;;;0.57;100.00;100679.16;1759394;79;21383;-49
2020/12/04 06:08:01;;;;;;;150.45;44.35;;;;;;;0.57;100.00;100678.27;1760273;79;21157;-46
2020/12/04 06:10:30;;;;;;;137.52;41.77;;;;;;;0.55;100.00;100678.27;1762842;79;21179;-46
2020/12/04 06:12:58;;;;;;;155.20;45.35;;;;;;;0.55;100.00;100680.92;1758569;79;21744;-46
2020/12/04 06:15:28;;;;;;;139.68;47.08;;;;;;;0.57;100.00;100683.58;1758313;79;21158;-44
2020/12/04 06:18:07;;;;;;;170.43;53.55;;;;;;;0.60;100.00;100688.92;1756563;79;21368;-45
2020/12/04 06:20:45;;;;;;;163.43;52.35;;;;;;;0.61;100.00;100682.73;1756053;79;21221;-48
2020/12/04 06:23:21;;;;;;;149.02;51.02;;;;;;;0.65;100.00;100693.81;1837877;75;22768;-47
2020/12/04 06:25:57;;;;;;;143.90;51.05;;;;;;;0.58;100.00;100694.20;1784801;78;20985;-47
2020/12/04 06:28:33;;;;;;;161.95;53.05;;;;;;;0.57;100.00;100698.18;1751279;78;21473;-48
2020/12/04 06:31:12;;;;;;;194.77;54.30;;;;;;;0.60;100.00;100700.86;1743547;79;21498;-49
2020/12/04 06:33:48;;;;;;;206.23;54.30;;;;;;;0.58;100.00;100694.20;1732763;81;20992;-51
2020/12/04 06:36:34;;;;;;;190.03;48.95;;;;;;;0.60;100.00;100699.53;1741945;81;21037;-45
2020/12/04 06:39:04;;;;;;;139.95;45.67;;;;;;;0.61;100.00;100703.96;1745407;81;21654;-50
2020/12/04 06:41:38;;;;;;;176.42;52.43;;;;;;;0.63;100.00;100704.84;1744093;79;21384;-47
2020/12/04 06:44:07;;;;;;;124.92;43.48;;;;;;;0.67;100.00;100698.68;1745570;79;21005;-48
2020/12/04 06:46:44;;;;;;;127.42;40.35;;;;;;;0.68;100.00;100700.45;1733790;79;21226;-46
2020/12/04 06:52:18;;;;;;;156.87;49.80;;;;;;;0.74;100.00;100704.02;1808929;76;22681;-46
2020/12/04 06:54:48;;;;;;;141.30;45.80;;;;;;;0.70;100.00;100706.67;1750197;79;21449;-44
2020/12/04 06:57:20;;;;;;;132.07;44.63;;;;;;;0.72;100.00;100711.54;1751362;79;21386;-43
2020/12/04 06:59:48;;;;;;;124.35;43.23;;;;;;;0.71;100.00;100711.09;1750667;79;20982;-44
2020/12/04 07:02:20;;;;;;;146.80;46.77;;;;;;;0.73;100.00;100714.63;1753466;79;21221;-49
2020/12/04 07:04:50;;;;;;;129.97;45.20;;;;;;;0.75;100.00;100720.86;1741117;79;20998;-50
2020/12/04 07:07:25;;;;;;;125.25;44.60;;;;;;;0.79;100.00;100729.27;1749683;79;21358;-48
2020/12/04 07:09:59;;;;;;;120.17;47.03;;;;;;;0.80;100.00;100724.42;1756271;79;21659;-45
2020/12/04 07:15:04;;;;;;;128.45;44.85;;;;;;;0.87;100.00;100720.91;1811406;76;22703;-48
2020/12/04 07:17:32;;;;;;;104.10;41.15;;;;;;;0.85;100.00;100712.03;1812898;77;21073;-46
2020/12/04 07:20:00;;;;;;;109.15;45.80;;;;;;;0.88;100.00;100715.16;1771329;80;21618;-48
2020/12/04 07:25:04;;;;;;;159.55;59.15;;;;;;;0.95;100.00;100719.16;1837767;74;27875;-48
2020/12/04 07:27:32;;;;;;;124.58;47.23;;;;;;;0.96;100.00;100731.58;1848651;76;21417;-47
2020/12/04 07:29:59;;;;;;;146.40;49.93;;;;;;;1.02;100.00;100726.30;1815232;77;21383;-49
2020/12/04 07:32:28;;;;;;;163.37;55.63;;;;;;;1.00;100.00;100731.13;1815920;77;21057;-46
2020/12/04 07:34:56;;;;;;;144.13;47.38;;;;;;;1.00;100.00;100728.03;1815349;77;20993;-47
2020/12/04 07:37:28;;;;;;;145.82;46.15;;;;;;;1.01;100.00;100727.18;1816048;77;20981;-47
2020/12/04 07:39:55;;;;;;;137.65;44.15;;;;;;;1.01;100.00;100733.82;1816881;77;20914;-49
2020/12/04 07:42:23;;;;;;;114.47;40.70;;;;;;;1.00;100.00;100741.31;1787517;77;21371;-46
2020/12/04 07:44:53;;;;;;;121.37;43.33;;;;;;;0.99;100.00;100739.55;1787872;77;20942;-46
2020/12/04 07:47:21;;;;;;;127.55;44.48;;;;;;;0.98;100.00;100735.12;1816351;77;21021;-49
2020/12/04 07:52:31;;;;;;;133.63;46.18;;;;;;;1.07;100.00;100742.25;1815473;76;23221;-48
2020/12/04 07:55:04;;;;;;;123.07;47.78;;;;;;;1.04;100.00;100743.11;1768807;78;21484;-47
2020/12/04 07:57:46;;;;;;;117.80;45.90;;;;;;;1.00;100.00;100749.28;1767020;79;22064;-47
2020/12/04 08:00:14;;;;;;;128.20;46.20;;;;;;;0.98;100.00;100741.76;1770656;79;21038;-47
2020/12/04 08:02:43;;;;;;;112.20;42.30;;;;;;;0.99;100.00;100747.52;1776167;79;21644;-48
2020/12/04 08:05:20;;;;;;;109.48;46.48;;;;;;;1.01;100.00;100742.20;1773525;78;20973;-46
2020/12/04 08:07:54;;;;;;;120.70;46.18;;;;;;;0.99;100.00;100742.20;1768012;79;21139;-48
2020/12/04 08:10:22;;;;;;;120.08;44.48;;;;;;;0.99;100.00;100747.52;1772258;79;21540;-48
2020/12/04 08:12:50;;;;;;;104.50;43.30;;;;;;;1.02;100.00;100746.21;1770564;80;21089;-49
2020/12/04 08:15:19;;;;;;;134.50;51.37;;;;;;;1.03;100.00;100746.66;1729074;80;21484;-47
2020/12/04 08:17:46;;;;;;;153.02;54.90;;;;;;;1.08;100.00;100740.48;1769457;80;21164;-47
2020/12/04 08:20:16;;;;;;;141.62;51.02;;;;;;;1.11;100.00;100740.48;1770361;80;21136;-47
2020/12/04 08:22:50;;;;;;;141.70;51.68;;;;;;;1.12;100.00;100742.24;1776451;79;21789;-47
2020/12/04 08:25:29;;;;;;;130.15;43.68;;;;;;;1.11;100.00;100750.66;1777376;80;21469;-46
2020/12/04 08:27:57;;;;;;;118.28;48.02;;;;;;;1.12;100.00;100751.55;1769630;79;20981;-51
2020/12/04 08:30:26;;;;;;;121.82;46.25;;;;;;;1.11;100.00;100751.09;1771987;79;21596;-50
2020/12/04 08:33:01;;;;;;;145.17;54.73;;;;;;;1.14;100.00;100751.12;1775390;79;21104;-47
2020/12/04 08:35:40;;;;;;;134.93;49.83;;;;;;;1.15;100.00;100760.87;1769599;79;21386;-50
2020/12/04 08:38:15;;;;;;;123.78;46.92;;;;;;;1.16;100.00;100748.02;1775777;78;21115;-46
2020/12/04 08:40:49;;;;;;;116.80;45.92;;;;;;;1.15;100.00;100756.44;1772050;78;20982;-50
2020/12/04 08:43:18;;;;;;;109.55;45.23;;;;;;;1.15;100.00;100759.53;1768188;80;20969;-47
2020/12/04 08:45:48;;;;;;;107.35;44.77;;;;;;;1.18;100.00;100758.23;1769888;79;20958;-48
2020/12/04 08:48:22;;;;;;;107.22;43.10;;;;;;;1.17;100.00;100748.46;1774638;79;21367;-50
2020/12/04 08:50:52;;;;;;;112.35;43.23;;;;;;;1.19;100.00;100736.09;1775650;80;21139;-47
2020/12/04 08:53:21;;;;;;;105.78;44.15;;;;;;;1.16;100.00;100736.07;1773651;79;21151;-51
2020/12/04 08:55:52;;;;;;;114.12;47.10;;;;;;;1.19;100.00;100744.06;1772856;79;21001;-52
2020/12/04 08:58:21;;;;;;;109.90;44.13;;;;;;;1.21;100.00;100742.28;1773537;79;21576;-51
2020/12/04 09:00:50;;;;;;;99.70;40.83;;;;;;;1.25;100.00;100744.08;1772159;78;21199;-54
2020/12/04 09:03:19;;;;;;;111.42;42.93;;;;;;;1.27;100.00;100747.62;1771489;79;21160;-55
2020/12/04 09:05:49;;;;;;;125.90;47.55;;;;;;;1.25;100.00;100752.05;1770052;79;21128;-46
2020/12/04 09:08:17;;;;;;;127.95;48.85;;;;;;;1.24;100.00;100750.28;1775817;79;21120;-49
2020/12/04 09:10:45;;;;;;;130.40;52.67;;;;;;;1.29;100.00;100752.52;1774191;79;21168;-56
2020/12/04 09:13:13;;;;;;;111.57;47.13;;;;;;;1.31;100.00;100740.11;1770954;80;21230;-46
2020/12/04 09:15:41;;;;;;;111.85;46.95;;;;;;;1.29;100.00;100744.11;1765315;80;21005;-47
2020/12/04 09:18:09;;;;;;;108.52;44.45;;;;;;;1.30;100.00;100750.30;1779481;80;21072;-50
2020/12/04 09:20:37;;;;;;;108.80;44.15;;;;;;;1.31;100.00;100749.41;1769746;79;20971;-47
2020/12/04 09:23:05;;;;;;;111.35;46.77;;;;;;;1.34;100.00;100749.44;1767823;78;21423;-46
2020/12/04 09:25:32;;;;;;;109.30;48.80;;;;;;;1.36;100.00;100745.00;1772168;79;21337;-50
2020/12/04 09:28:02;;;;;;;112.25;46.77;;;;;;;1.43;100.00;100757.41;1774321;79;21133;-47
2020/12/04 09:30:29;;;;;;;109.50;44.75;;;;;;;1.46;100.00;100752.13;1776301;79;21112;-52
2020/12/04 09:32:57;;;;;;;97.57;44.03;;;;;;;1.46;100.00;100750.80;1767098;79;21104;-46
2020/12/04 09:35:25;;;;;;;101.62;42.58;;;;;;;1.44;100.00;100755.23;1770912;79;21124;-50
2020/12/04 09:37:53;;;;;;;111.10;46.18;;;;;;;1.42;100.00;100749.00;1770470;79;21357;-48
2020/12/04 09:40:20;;;;;;;102.50;46.45;;;;;;;1.47;100.00;100749.91;1771441;78;21009;-50
2020/12/04 09:42:48;;;;;;;114.28;47.70;;;;;;;1.48;100.00;100750.34;1770501;79;21128;-50
2020/12/04 09:45:18;;;;;;;107.63;45.92;;;;;;;1.45;100.00;100750.35;1765667;79;21437;-49
2020/12/04 09:47:46;;;;;;;110.88;43.33;;;;;;;1.44;100.00;100749.91;1772191;79;20989;-49
2020/12/04 09:50:15;;;;;;;98.20;42.95;;;;;;;1.47;100.00;100741.92;1769619;79;22120;-46
2020/12/04 09:52:43;;;;;;;103.65;40.98;;;;;;;1.50;100.00;100740.62;1777330;79;21150;-47
2020/12/04 09:55:11;;;;;;;98.58;42.85;;;;;;;1.54;100.00;100745.03;1785311;78;21198;-54
2020/12/04 09:57:41;;;;;;;99.00;39.45;;;;;;;1.57;100.00;100742.40;1789378;78;21013;-53
2020/12/04 10:00:09;;;;;;;118.00;46.20;;;;;;;1.64;100.00;100737.09;1781477;78;21099;-49
2020/12/04 10:02:37;;;;;;;120.50;49.30;;;;;;;1.64;100.00;100735.31;1788251;78;21436;-49
2020/12/04 10:05:05;;;;;;;111.60;44.40;;;;;;;1.65;100.00;100738.86;1781496;79;21576;-48
2020/12/04 10:07:33;;;;;;;119.13;44.85;;;;;;;1.66;100.00;100738.00;1780677;79;20985;-45
2020/12/04 10:10:00;;;;;;;128.38;51.63;;;;;;;1.65;100.00;100741.52;1775049;78;21123;-47
2020/12/04 10:12:28;;;;;;;139.35;51.02;;;;;;;1.65;100.00;100738.86;1782324;78;21096;-51
2020/12/04 10:14:56;;;;;;;140.20;53.40;;;;;;;1.65;100.00;100745.09;1779204;78;22277;-49
2020/12/04 10:17:23;;;;;;;130.85;48.92;;;;;;;1.65;100.00;100746.83;1783216;78;21016;-45
2020/12/04 10:19:51;;;;;;;135.20;52.30;;;;;;;1.65;100.00;100749.49;1784660;79;21055;-46
2020/12/04 10:22:20;;;;;;;124.65;46.23;;;;;;;1.65;100.00;100753.48;1784778;78;21103;-53
2020/12/04 10:24:48;;;;;;;144.57;51.58;;;;;;;1.64;100.00;100750.38;1781725;78;21135;-48
2020/12/04 10:27:16;;;;;;;143.85;49.70;;;;;;;1.66;100.00;100743.31;1784291;79;21451;-47
2020/12/04 10:29:46;;;;;;;147.93;53.05;;;;;;;1.64;100.00;100747.72;1787996;78;21460;-46
2020/12/04 10:32:13;;;;;;;161.37;53.20;;;;;;;1.62;100.00;100752.16;1783121;79;21099;-49
2020/12/04 10:34:41;;;;;;;192.62;58.60;;;;;;;1.58;100.00;100749.48;1781667;78;21103;-47
2020/12/04 10:37:09;;;;;;;155.93;54.20;;;;;;;1.52;100.00;100744.16;1786473;79;21115;-48
2020/12/04 10:39:37;;;;;;;168.50;56.53;;;;;;;1.50;100.00;100737.97;1782399;78;21439;-49
2020/12/04 10:42:06;;;;;;;200.15;60.60;;;;;;;1.48;100.00;100745.03;1788261;79;20993;-47
2020/12/04 10:44:35;;;;;;;208.00;63.13;;;;;;;1.46;100.00;100741.48;1779465;78;21179;-48
2020/12/04 10:47:03;;;;;;;206.10;65.28;;;;;;;1.44;100.00;100737.95;1782315;79;21105;-49
2020/12/04 10:49:30;;;;;;;160.07;55.43;;;;;;;1.46;100.00;100740.16;1784261;78;21129;-52
2020/12/04 10:52:00;;;;;;;208.30;63.00;;;;;;;1.45;100.00;100736.18;1782313;79;22092;-52
2020/12/04 10:54:27;;;;;;;166.12;56.90;;;;;;;1.42;100.00;100739.70;1785926;78;21013;-52
2020/12/04 10:56:56;;;;;;;166.15;54.25;;;;;;;1.41;100.00;100737.94;1767093;78;21083;-61
2020/12/04 10:59:27;;;;;;;187.92;59.75;;;;;;;1.40;100.00;100741.48;1781713;78;21733;-58
2020/12/04 11:02:03;;;;;;;157.72;54.67;;;;;;;1.37;100.00;100737.91;1768445;79;21168;-53
2020/12/04 11:07:12;;;;;;;145.22;51.40;;;;;;;1.34;100.00;100732.61;1765337;80;20726;-49
2020/12/04 11:09:42;;;;;;;131.15;49.42;;;;;;;1.30;100.00;100739.67;1761765;80;21196;-48
2020/12/04 11:12:11;;;;;;;169.15;54.95;;;;;;;1.30;100.00;100744.55;1764088;79;21171;-50
2020/12/04 11:14:43;;;;;;;131.57;49.50;;;;;;;1.28;100.00;100744.11;1759226;80;21520;-48
2020/12/04 11:17:10;;;;;;;160.22;53.55;;;;;;;1.24;100.00;100734.34;1758885;79;21457;-52
2020/12/04 11:19:38;;;;;;;137.55;49.27;;;;;;;1.22;100.00;100738.74;1765182;80;21029;-50
2020/12/04 11:22:06;;;;;;;121.15;47.08;;;;;;;1.22;100.00;100734.75;1763368;80;21136;-54
2020/12/04 11:24:34;;;;;;;120.05;46.95;;;;;;;1.20;100.00;100736.09;1763149;79;21642;-52
2020/12/04 11:27:02;;;;;;;136.72;51.98;;;;;;;1.19;100.00;100736.09;1760747;79;21132;-55
2020/12/04 11:29:31;;;;;;;147.37;52.62;;;;;;;1.18;100.00;100729.02;1731542;80;22323;-51
2020/12/04 11:31:59;;;;;;;163.32;55.35;;;;;;;1.16;100.00;100736.07;1761676;79;20985;-50